createdAt,value
2022-11-30T00:01:19.730Z,9.73
2022-11-30T00:03:46.269Z,9.75
2022-11-30T00:06:15.617Z,9.77
2022-11-30T00:08:42.505Z,9.79
2022-11-30T00:11:21.125Z,9.80
2022-11-30T00:13:48.816Z,9.80
2022-11-30T00:16:15.255Z,9.80
2022-11-30T00:18:41.728Z,9.81
2022-11-30T00:21:11.710Z,9.80
2022-11-30T00:23:39.899Z,9.78
2022-11-30T00:26:08.976Z,9.77
2022-11-30T00:28:36.561Z,9.75
2022-11-30T00:31:06.572Z,9.75
2022-11-30T00:33:34.196Z,9.72
2022-11-30T00:36:04.368Z,9.72
2022-11-30T00:38:32.082Z,9.70
2022-11-30T00:40:58.706Z,9.70
2022-11-30T00:43:25.120Z,9.67
2022-11-30T00:45:51.543Z,9.66
2022-11-30T00:48:18.003Z,9.65
2022-11-30T00:50:44.350Z,9.65
2022-11-30T00:53:10.782Z,9.63
2022-11-30T00:55:37.142Z,9.63
2022-11-30T00:58:03.587Z,9.62
2022-11-30T01:00:30.024Z,9.63
2022-11-30T01:02:57.812Z,9.63
2022-11-30T01:05:24.153Z,9.63
2022-11-30T01:07:50.743Z,9.63
2022-11-30T01:10:17.841Z,9.63
2022-11-30T01:12:44.243Z,9.63
2022-11-30T01:15:10.982Z,9.62
2022-11-30T01:17:37.439Z,9.62
2022-11-30T01:20:05.002Z,9.63
2022-11-30T01:22:31.351Z,9.64
2022-11-30T01:24:57.696Z,9.65
2022-11-30T01:27:24.090Z,9.65
2022-11-30T01:29:50.433Z,9.67
2022-11-30T01:32:16.771Z,9.67
2022-11-30T01:34:43.106Z,9.70
2022-11-30T01:37:09.461Z,9.70
2022-11-30T01:39:35.791Z,9.70
2022-11-30T01:42:02.200Z,9.70
2022-11-30T01:44:28.495Z,9.69
2022-11-30T01:47:03.332Z,9.69
2022-11-30T01:49:40.338Z,9.70
2022-11-30T01:52:32.273Z,9.71
2022-11-30T01:55:23.450Z,9.71
2022-11-30T01:58:06.959Z,9.72
2022-11-30T02:00:33.511Z,9.71
2022-11-30T02:03:05.804Z,9.72
2022-11-30T02:05:35.957Z,9.73
2022-11-30T02:08:02.644Z,9.73
2022-11-30T02:10:32.674Z,9.72
2022-11-30T02:13:13.708Z,9.70
2022-11-30T02:16:10.657Z,9.68
2022-11-30T02:18:55.837Z,9.67
2022-11-30T02:21:28.457Z,9.67
2022-11-30T02:24:22.471Z,9.67
2022-11-30T02:27:13.660Z,9.68
2022-11-30T02:30:03.349Z,9.67
2022-11-30T02:32:41.187Z,9.71
2022-11-30T02:35:09.881Z,9.68
2022-11-30T02:37:38.434Z,9.69
2022-11-30T02:40:14.792Z,9.70
2022-11-30T02:42:41.177Z,9.67
2022-11-30T02:45:09.323Z,9.67
2022-11-30T02:47:55.346Z,9.65
2022-11-30T02:50:27.722Z,9.63
2022-11-30T02:52:54.752Z,9.61
2022-11-30T02:55:21.617Z,9.59
2022-11-30T02:57:48.071Z,9.58
2022-11-30T03:00:15.452Z,9.56
2022-11-30T03:02:42.092Z,9.57
2022-11-30T03:05:09.466Z,9.57
2022-11-30T03:07:36.188Z,9.57
2022-11-30T03:10:05.009Z,9.59
2022-11-30T03:12:31.336Z,9.61
2022-11-30T03:14:57.702Z,9.62
2022-11-30T03:17:24.188Z,9.62
2022-11-30T03:19:50.508Z,9.63
2022-11-30T03:22:16.926Z,9.64
2022-11-30T03:24:43.259Z,9.61
2022-11-30T03:27:09.585Z,9.61
2022-11-30T03:29:36.065Z,9.59
2022-11-30T03:32:02.380Z,9.58
2022-11-30T03:34:28.726Z,9.56
2022-11-30T03:36:55.125Z,9.55
2022-11-30T03:39:21.573Z,9.55
2022-11-30T03:41:47.921Z,9.54
2022-11-30T03:44:14.253Z,9.53
2022-11-30T03:46:40.712Z,9.53
2022-11-30T03:49:07.258Z,9.54
2022-11-30T03:51:33.725Z,9.55
2022-11-30T03:54:00.040Z,9.56
2022-11-30T03:56:26.426Z,9.56
2022-11-30T03:58:52.807Z,9.58
2022-11-30T04:01:23.702Z,9.56
2022-11-30T04:03:51.589Z,9.56
2022-11-30T04:06:18.806Z,9.54
2022-11-30T04:08:45.256Z,9.51
2022-11-30T04:11:12.235Z,9.47
2022-11-30T04:13:39.822Z,9.47
2022-11-30T04:16:06.921Z,9.46
2022-11-30T04:18:35.126Z,9.45
2022-11-30T04:21:02.202Z,9.45
2022-11-30T04:23:36.663Z,9.48
2022-11-30T04:26:05.098Z,9.47
2022-11-30T04:28:31.545Z,9.46
2022-11-30T04:31:00.495Z,9.44
2022-11-30T04:33:27.948Z,9.43
2022-11-30T04:35:56.481Z,9.39
2022-11-30T04:38:23.795Z,9.38
2022-11-30T04:40:50.129Z,9.36
2022-11-30T04:43:16.602Z,9.34
2022-11-30T04:45:44.695Z,9.32
2022-11-30T04:48:11.567Z,9.33
2022-11-30T04:50:37.904Z,9.32
2022-11-30T04:53:04.409Z,9.31
2022-11-30T04:55:30.769Z,9.31
2022-11-30T04:57:57.125Z,9.29
2022-11-30T05:00:23.863Z,9.28
2022-11-30T05:02:52.699Z,9.25
2022-11-30T05:05:20.290Z,9.23
2022-11-30T05:07:57.017Z,9.23
2022-11-30T05:10:24.149Z,9.21
2022-11-30T05:12:50.503Z,9.18
2022-11-30T05:15:16.909Z,9.16
2022-11-30T05:17:43.468Z,9.14
2022-11-30T05:20:10.321Z,9.12
2022-11-30T05:22:36.676Z,9.10
2022-11-30T05:25:03.193Z,9.09
2022-11-30T05:27:29.535Z,9.07
2022-11-30T05:29:56.070Z,9.06
2022-11-30T05:32:22.449Z,9.04
2022-11-30T05:34:51.607Z,9.02
2022-11-30T05:37:19.050Z,9.00
2022-11-30T05:39:45.347Z,8.99
2022-11-30T05:42:11.694Z,8.98
2022-11-30T05:44:37.998Z,8.97
2022-11-30T05:47:04.549Z,8.98
2022-11-30T05:49:30.973Z,8.97
2022-11-30T05:51:57.301Z,8.99
2022-11-30T05:54:23.605Z,8.96
2022-11-30T05:56:54.471Z,8.96
2022-11-30T05:59:21.465Z,8.95
2022-11-30T06:01:47.965Z,8.95
2022-11-30T06:04:14.677Z,8.94
2022-11-30T06:06:41.011Z,8.93
2022-11-30T06:09:07.437Z,8.93
2022-11-30T06:11:34.064Z,8.92
2022-11-30T06:14:00.417Z,8.91
2022-11-30T06:16:26.863Z,8.90
2022-11-30T06:18:53.398Z,8.90
2022-11-30T06:21:24.108Z,8.90
2022-11-30T06:23:51.157Z,8.89
2022-11-30T06:26:17.478Z,8.87
2022-11-30T06:28:47.871Z,8.86
2022-11-30T06:31:15.099Z,8.85
2022-11-30T06:33:41.463Z,8.86
2022-11-30T06:36:08.320Z,8.87
2022-11-30T06:38:34.681Z,8.90
2022-11-30T06:41:05.986Z,8.91
2022-11-30T06:43:36.964Z,8.92
2022-11-30T06:46:04.596Z,8.93
2022-11-30T06:48:31.117Z,8.95
2022-11-30T06:50:58.506Z,8.95
2022-11-30T06:53:25.222Z,8.97
2022-11-30T06:55:51.546Z,8.99
2022-11-30T06:58:18.422Z,9.02
2022-11-30T07:00:45.036Z,9.02
2022-11-30T07:03:11.858Z,9.05
2022-11-30T07:05:44.535Z,9.08
2022-11-30T07:08:12.221Z,9.09
2022-11-30T07:10:42.909Z,9.11
2022-11-30T07:13:14.335Z,9.12
2022-11-30T07:15:42.318Z,9.12
2022-11-30T07:18:09.217Z,9.11
2022-11-30T07:20:36.554Z,9.12
2022-11-30T07:23:23.201Z,9.11
2022-11-30T07:26:09.444Z,9.13
2022-11-30T07:28:39.853Z,9.14
2022-11-30T07:31:21.163Z,9.13
2022-11-30T07:33:48.794Z,9.08
2022-11-30T07:36:16.953Z,9.06
2022-11-30T07:38:43.582Z,9.03
2022-11-30T07:41:10.476Z,9.01
2022-11-30T07:43:36.975Z,9.01
2022-11-30T07:46:04.655Z,8.99
2022-11-30T07:48:31.551Z,9.00
2022-11-30T07:51:10.681Z,9.00
2022-11-30T07:53:37.036Z,9.01
2022-11-30T07:56:06.138Z,9.00
2022-11-30T07:58:33.320Z,9.01
2022-11-30T08:01:05.070Z,9.02
2022-11-30T08:03:36.829Z,9.02
2022-11-30T08:06:11.938Z,9.03
2022-11-30T08:08:41.235Z,9.04
2022-11-30T08:11:09.659Z,9.05
2022-11-30T08:13:36.050Z,9.05
2022-11-30T08:16:04.232Z,9.07
2022-11-30T08:18:30.892Z,9.05
2022-11-30T08:20:59.851Z,9.05
2022-11-30T08:23:30.845Z,9.05
2022-11-30T08:26:06.157Z,9.06
2022-11-30T08:28:35.945Z,9.06
2022-11-30T08:31:07.990Z,9.08
2022-11-30T08:33:36.250Z,9.08
2022-11-30T08:36:17.344Z,9.09
2022-11-30T08:38:45.278Z,9.09
2022-11-30T08:41:13.911Z,9.07
2022-11-30T08:43:40.882Z,9.06
2022-11-30T08:46:34.587Z,9.06
2022-11-30T08:49:13.060Z,9.05
2022-11-30T08:52:15.394Z,9.04
2022-11-30T08:54:29.603Z,9.08
2022-11-30T08:56:55.902Z,9.08
2022-11-30T08:59:22.230Z,9.06
2022-11-30T09:01:48.562Z,9.05
2022-11-30T09:04:14.862Z,9.03
2022-11-30T09:06:41.826Z,9.04
2022-11-30T09:09:08.153Z,9.04
2022-11-30T09:11:34.473Z,9.05
2022-11-30T09:14:04.131Z,9.05
2022-11-30T09:16:30.788Z,9.05
2022-11-30T09:18:57.202Z,9.04
2022-11-30T09:21:25.084Z,9.01
2022-11-30T09:23:52.390Z,9.01
2022-11-30T09:26:21.126Z,9.01
2022-11-30T09:28:48.307Z,9.00
2022-11-30T09:31:17.391Z,8.99
2022-11-30T09:33:44.581Z,8.98
2022-11-30T09:36:14.180Z,8.98
2022-11-30T09:38:42.448Z,8.97
2022-11-30T09:41:36.932Z,8.98
2022-11-30T09:44:17.284Z,8.96
2022-11-30T09:47:05.578Z,8.96
2022-11-30T09:49:36.644Z,8.95
2022-11-30T09:52:05.969Z,8.94
2022-11-30T09:54:38.445Z,8.93
2022-11-30T09:57:13.436Z,8.91
2022-11-30T09:59:46.537Z,8.90
2022-11-30T10:02:17.194Z,8.89
2022-11-30T10:04:44.361Z,8.88
2022-11-30T10:07:40.388Z,8.87
2022-11-30T10:10:32.351Z,8.88
2022-11-30T10:13:05.083Z,8.87
2022-11-30T10:16:00.718Z,8.85
2022-11-30T10:18:36.048Z,8.86
2022-11-30T10:21:28.715Z,8.85
2022-11-30T10:24:20.090Z,8.87
2022-11-30T10:27:16.994Z,8.87
2022-11-30T10:29:44.146Z,8.87
2022-11-30T10:32:22.390Z,8.87
2022-11-30T10:34:52.866Z,8.85
2022-11-30T10:37:23.136Z,8.84
2022-11-30T10:40:01.509Z,8.82
2022-11-30T10:42:50.426Z,8.80
2022-11-30T10:45:21.704Z,8.78
2022-11-30T10:48:05.006Z,8.78
2022-11-30T10:50:31.782Z,8.74
2022-11-30T10:53:00.676Z,8.73
2022-11-30T10:55:31.401Z,8.71
2022-11-30T10:58:05.086Z,8.71
2022-11-30T11:00:31.450Z,8.70
2022-11-30T11:02:57.835Z,8.69
2022-11-30T11:05:25.858Z,8.71
2022-11-30T11:08:19.232Z,8.74
2022-11-30T11:10:49.588Z,8.76
2022-11-30T11:13:35.338Z,8.76
2022-11-30T11:16:02.657Z,8.79
2022-11-30T11:18:31.121Z,8.81
2022-11-30T11:21:16.971Z,8.84
2022-11-30T11:23:45.050Z,8.85
2022-11-30T11:26:24.601Z,8.89
2022-11-30T11:28:53.358Z,8.90
2022-11-30T11:31:35.768Z,8.92
2022-11-30T11:34:03.343Z,8.94
2022-11-30T11:36:31.978Z,8.96
2022-11-30T11:38:59.651Z,8.97
2022-11-30T11:41:37.468Z,8.97
2022-11-30T11:44:09.751Z,8.99
2022-11-30T11:46:53.317Z,8.98
2022-11-30T11:49:25.900Z,8.98
2022-11-30T11:52:02.801Z,8.98
2022-11-30T11:54:36.982Z,8.95
2022-11-30T11:57:03.575Z,8.93
2022-11-30T11:59:54.070Z,8.92
2022-11-30T12:03:05.380Z,8.91
2022-11-30T12:05:49.364Z,8.93
2022-11-30T12:08:19.095Z,8.95
2022-11-30T12:11:02.553Z,8.95
2022-11-30T12:13:33.770Z,8.95
2022-11-30T12:16:26.652Z,8.94
2022-11-30T12:19:07.009Z,8.90
2022-11-30T12:21:45.229Z,8.88
2022-11-30T12:24:41.382Z,8.84
2022-11-30T12:27:22.606Z,8.83
2022-11-30T12:29:56.493Z,8.84
2022-11-30T12:32:37.359Z,8.85
2022-11-30T12:35:39.691Z,8.87
2022-11-30T12:38:33.564Z,8.88
2022-11-30T12:41:30.887Z,8.88
2022-11-30T12:44:22.224Z,8.89
2022-11-30T12:47:01.244Z,8.90
2022-11-30T12:49:54.595Z,8.90
2022-11-30T12:52:29.833Z,8.90
2022-11-30T12:55:28.646Z,8.92
2022-11-30T12:58:13.765Z,8.91
2022-11-30T13:01:08.109Z,8.90
2022-11-30T13:03:45.476Z,8.88
2022-11-30T13:06:16.953Z,8.88
2022-11-30T13:09:24.913Z,8.89
2022-11-30T13:12:00.571Z,8.88
2022-11-30T13:14:28.659Z,8.85
2022-11-30T13:17:04.342Z,8.84
2022-11-30T13:19:47.063Z,8.80
2022-11-30T13:22:26.400Z,8.78
2022-11-30T13:26:06.258Z,8.75
2022-11-30T13:28:45.147Z,8.73
2022-11-30T13:31:44.114Z,8.69
2022-11-30T13:34:28.470Z,8.66
2022-11-30T13:37:27.033Z,8.63
2022-11-30T13:39:56.192Z,8.59
2022-11-30T13:42:34.636Z,8.56
2022-11-30T13:45:13.274Z,8.54
2022-11-30T13:47:50.215Z,8.51
2022-11-30T13:50:36.138Z,8.49
2022-11-30T13:53:02.468Z,8.47
2022-11-30T13:55:53.693Z,8.48
2022-11-30T13:58:20.460Z,8.48
2022-11-30T14:01:02.783Z,8.50
2022-11-30T14:03:33.485Z,8.52
2022-11-30T14:06:22.296Z,8.53
2022-11-30T14:08:52.232Z,8.55
2022-11-30T14:11:18.494Z,8.57
2022-11-30T14:13:44.922Z,8.59
2022-11-30T14:16:24.380Z,8.62
2022-11-30T14:18:51.131Z,8.64
2022-11-30T14:21:34.388Z,8.65
2022-11-30T14:24:13.938Z,8.63
2022-11-30T14:26:44.597Z,8.61
2022-11-30T14:29:18.645Z,8.57
2022-11-30T14:31:48.145Z,8.53
2022-11-30T14:34:21.914Z,8.51
2022-11-30T14:36:53.513Z,8.51
2022-11-30T14:39:25.720Z,8.52
2022-11-30T14:41:52.261Z,8.53
2022-11-30T14:44:19.276Z,8.55
2022-11-30T14:46:45.721Z,8.55
2022-11-30T14:49:18.016Z,8.55
2022-11-30T14:51:50.861Z,8.54
2022-11-30T14:54:39.274Z,8.54
2022-11-30T14:57:15.374Z,8.53
2022-11-30T14:59:47.316Z,8.52
2022-11-30T15:02:43.050Z,8.50
2022-11-30T15:05:15.925Z,8.49
2022-11-30T15:07:43.605Z,8.48
2022-11-30T15:10:15.652Z,8.49
2022-11-30T15:12:44.913Z,8.49
2022-11-30T15:15:16.633Z,8.49
2022-11-30T15:17:58.012Z,8.53
2022-11-30T15:20:36.634Z,8.57
2022-11-30T15:23:03.200Z,8.61
2022-11-30T15:25:43.309Z,8.66
2022-11-30T15:28:12.650Z,8.69
2022-11-30T15:30:42.568Z,8.73
2022-11-30T15:33:23.163Z,8.78
2022-11-30T15:38:40.694Z,8.83
2022-11-30T15:41:34.802Z,8.86
2022-11-30T15:44:04.376Z,8.84
2022-11-30T15:46:34.404Z,8.84
2022-11-30T15:49:22.525Z,8.84
2022-11-30T15:52:17.372Z,8.85
2022-11-30T15:54:55.577Z,8.84
2022-11-30T15:57:24.452Z,8.84
2022-11-30T16:00:20.738Z,8.82
2022-11-30T16:02:47.230Z,8.80
2022-11-30T16:05:14.854Z,8.76
2022-11-30T16:07:48.936Z,8.72
2022-11-30T16:10:24.250Z,8.67
2022-11-30T16:12:52.379Z,8.65
2022-11-30T16:15:28.106Z,8.63
2022-11-30T16:18:23.508Z,8.61
2022-11-30T16:20:53.056Z,8.59
2022-11-30T16:23:20.079Z,8.57
2022-11-30T16:25:48.098Z,8.54
2022-11-30T16:28:17.105Z,8.51
2022-11-30T16:30:44.856Z,8.48
2022-11-30T16:33:28.112Z,8.45
2022-11-30T16:36:01.634Z,8.43
2022-11-30T16:38:28.804Z,8.40
2022-11-30T16:40:55.843Z,8.38
2022-11-30T16:43:41.629Z,8.40
2022-11-30T16:46:13.221Z,8.40
2022-11-30T16:48:39.924Z,8.41
2022-11-30T16:51:20.941Z,8.40
2022-11-30T16:53:47.289Z,8.37
2022-11-30T16:56:14.767Z,8.35
2022-11-30T16:58:41.769Z,8.32
2022-11-30T17:01:15.218Z,8.31
2022-11-30T17:03:46.778Z,8.30
2022-11-30T17:06:17.619Z,8.30
2022-11-30T17:08:44.698Z,8.29
2022-11-30T17:11:18.334Z,8.29
2022-11-30T17:13:44.850Z,8.28
2022-11-30T17:16:11.309Z,8.28
2022-11-30T17:18:37.673Z,8.29
2022-11-30T17:21:04.218Z,8.31
2022-11-30T17:23:30.556Z,8.32
2022-11-30T17:25:56.880Z,8.34
2022-11-30T17:28:23.194Z,8.35
2022-11-30T17:30:49.589Z,8.40
2022-11-30T17:33:15.938Z,8.41
2022-11-30T17:35:42.443Z,8.42
2022-11-30T17:38:08.756Z,8.42
2022-11-30T17:40:35.093Z,8.42
2022-11-30T17:43:01.471Z,8.42
2022-11-30T17:45:27.792Z,8.42
2022-11-30T17:47:54.086Z,8.40
2022-11-30T17:50:20.459Z,8.39
2022-11-30T17:52:46.803Z,8.36
2022-11-30T17:55:13.157Z,8.34
2022-11-30T17:57:39.527Z,8.32
2022-11-30T18:00:07.056Z,8.32
2022-11-30T18:02:33.458Z,8.32
2022-11-30T18:04:59.814Z,8.33
2022-11-30T18:07:26.249Z,8.33
2022-11-30T18:09:52.608Z,8.32
2022-11-30T18:12:18.953Z,8.30
2022-11-30T18:14:45.663Z,8.29
2022-11-30T18:17:12.142Z,8.28
2022-11-30T18:19:38.508Z,8.28
2022-11-30T18:22:04.833Z,8.26
2022-11-30T18:24:31.213Z,8.26
2022-11-30T18:26:57.529Z,8.27
2022-11-30T18:29:24.889Z,8.28
2022-11-30T18:31:51.486Z,8.27
2022-11-30T18:34:17.821Z,8.27
2022-11-30T18:36:44.137Z,8.26
2022-11-30T18:39:10.755Z,8.26
2022-11-30T18:41:37.126Z,8.27
2022-11-30T18:44:03.775Z,8.27
2022-11-30T18:46:30.419Z,8.27
2022-11-30T18:48:56.953Z,8.27
2022-11-30T18:51:26.102Z,8.28
2022-11-30T18:54:01.212Z,8.27
2022-11-30T18:56:30.339Z,8.27
2022-11-30T18:58:59.131Z,8.25
2022-11-30T19:01:26.507Z,8.24
2022-11-30T19:03:55.636Z,8.24
2022-11-30T19:06:24.679Z,8.22
2022-11-30T19:08:52.027Z,8.24
2022-11-30T19:11:18.452Z,8.24
2022-11-30T19:13:45.569Z,8.25
2022-11-30T19:16:15.458Z,8.26
2022-11-30T19:18:44.706Z,8.26
2022-11-30T19:21:14.038Z,8.27
2022-11-30T19:23:40.478Z,8.27
2022-11-30T19:26:08.264Z,8.28
2022-11-30T19:28:35.917Z,8.31
2022-11-30T19:31:17.544Z,8.33
2022-11-30T19:33:49.381Z,8.34
2022-11-30T19:36:21.466Z,8.33
2022-11-30T19:38:48.349Z,8.32
2022-11-30T19:41:15.844Z,8.31
2022-11-30T19:43:47.766Z,8.31
2022-11-30T19:46:17.944Z,8.31
2022-11-30T19:48:44.932Z,8.32
2022-11-30T19:51:18.442Z,8.35
2022-11-30T19:53:45.970Z,8.38
2022-11-30T19:56:14.688Z,8.40
2022-11-30T19:58:45.983Z,8.44
2022-11-30T20:01:17.338Z,8.49
2022-11-30T20:03:46.374Z,8.50
2022-11-30T20:06:12.806Z,8.53
2022-11-30T20:08:39.370Z,8.55
2022-11-30T20:11:10.558Z,8.56
2022-11-30T20:13:37.512Z,8.57
2022-11-30T20:16:09.053Z,8.58
2022-11-30T20:18:35.804Z,8.57
2022-11-30T20:21:17.006Z,8.59
2022-11-30T20:23:45.650Z,8.59
2022-11-30T20:26:17.268Z,8.59
2022-11-30T20:28:44.856Z,8.59
2022-11-30T20:31:12.899Z,8.58
2022-11-30T20:33:39.467Z,8.57
2022-11-30T20:36:08.588Z,8.56
2022-11-30T20:38:35.105Z,8.55
2022-11-30T20:41:01.650Z,8.56
2022-11-30T20:43:28.322Z,8.56
2022-11-30T20:45:54.702Z,8.57
2022-11-30T20:48:21.195Z,8.60
2022-11-30T20:51:00.965Z,8.63
2022-11-30T20:53:34.425Z,8.65
2022-11-30T20:56:00.873Z,8.65
2022-11-30T20:58:27.246Z,8.67
2022-11-30T21:00:53.651Z,8.68
2022-11-30T21:03:19.982Z,8.69
2022-11-30T21:05:46.274Z,8.69
2022-11-30T21:08:12.612Z,8.68
2022-11-30T21:10:39.743Z,8.69
2022-11-30T21:13:06.106Z,8.68
2022-11-30T21:15:32.603Z,8.68
2022-11-30T21:17:59.065Z,8.67
2022-11-30T21:20:25.553Z,8.65
2022-11-30T21:22:51.949Z,8.65
2022-11-30T21:25:18.301Z,8.64
2022-11-30T21:27:44.657Z,8.62
2022-11-30T21:30:11.623Z,8.63
2022-11-30T21:32:37.985Z,8.61
2022-11-30T21:35:04.696Z,8.61
2022-11-30T21:37:31.102Z,8.60
2022-11-30T21:39:57.443Z,8.59
2022-11-30T21:42:23.738Z,8.57
2022-11-30T21:44:50.290Z,8.56
2022-11-30T21:47:16.983Z,8.55
2022-11-30T21:49:43.347Z,8.56
2022-11-30T21:52:09.736Z,8.54
2022-11-30T21:54:36.104Z,8.55
2022-11-30T21:57:02.506Z,8.56
2022-11-30T21:59:28.926Z,8.56
2022-11-30T22:01:55.379Z,8.56
2022-11-30T22:04:21.937Z,8.56
2022-11-30T22:06:48.259Z,8.59
2022-11-30T22:09:16.780Z,8.61
2022-11-30T22:11:45.235Z,8.62
2022-11-30T22:14:15.630Z,8.65
2022-11-30T22:16:42.132Z,8.63
2022-11-30T22:19:08.810Z,8.64
2022-11-30T22:21:35.448Z,8.65
2022-11-30T22:24:07.058Z,8.65
2022-11-30T22:26:38.678Z,8.65
2022-11-30T22:29:14.014Z,8.65
2022-11-30T22:31:45.136Z,8.65
2022-11-30T22:34:11.957Z,8.64
2022-11-30T22:36:40.369Z,8.63
2022-11-30T22:39:18.370Z,8.64
2022-11-30T22:41:48.630Z,8.66
2022-11-30T22:44:20.019Z,8.65
2022-11-30T22:46:46.503Z,8.65
2022-11-30T22:49:20.219Z,8.64
2022-11-30T22:51:47.643Z,8.62
2022-11-30T22:54:14.028Z,8.61
2022-11-30T22:56:41.565Z,8.58
2022-11-30T22:59:10.995Z,8.59
2022-11-30T23:01:48.676Z,8.58
2022-11-30T23:04:17.980Z,8.57
2022-11-30T23:06:45.541Z,8.57
2022-11-30T23:09:14.871Z,8.59
2022-11-30T23:11:41.695Z,8.60
2022-11-30T23:14:08.913Z,8.62
2022-11-30T23:16:39.267Z,8.64
2022-11-30T23:19:06.231Z,8.65
2022-11-30T23:21:40.573Z,8.63
2022-11-30T23:24:11.853Z,8.62
2022-11-30T23:26:38.486Z,8.61
2022-11-30T23:29:07.477Z,8.61
2022-11-30T23:31:36.327Z,8.61
2022-11-30T23:34:09.095Z,8.61
2022-11-30T23:36:36.233Z,8.60
2022-11-30T23:39:05.995Z,8.60
2022-11-30T23:41:32.585Z,8.60
2022-11-30T23:43:59.286Z,8.62
2022-11-30T23:46:26.210Z,8.63
2022-11-30T23:48:52.907Z,8.64
2022-11-30T23:51:19.235Z,8.64
2022-11-30T23:53:45.597Z,8.64
2022-11-30T23:56:14.411Z,8.62
2022-11-30T23:58:40.965Z,8.61
